Terminal Aerodrome Forecast
Issued by NWS

Home | Current Version | Previous Version | Text Only | Print | Product List | Glossary On
Versions: 1 2 3 4 5 6 7 8 9 10 11 12 13 14 15 16 17 18 19 20
000
FTUS43 KGRR 261141
TAFAZO
TAF
KAZO 261141Z 2612/2712 19010KT 5SM BR BKN009
     FM261500 20012KT P6SM BKN015
     FM261800 19013KT P6SM VCTS BKN035CB
     FM261900 21015G25KT 4SM TSRA BR BKN035CB
     FM262200 19012KT 5SM BR VCSH BKN050
     FM270600 22011KT 4SM BR OVC015=

USA.gov is the U.S. government's official web portal to all federal, state and local government web resources and services.